createdAt,value
2018-12-21T00:02:30.031Z,98300.19
2018-12-21T00:07:32.561Z,98296.23
2018-12-21T00:12:34.847Z,98289.34
2018-12-21T00:17:37.168Z,98297.23
2018-12-21T00:22:39.579Z,98291.98
2018-12-21T00:27:41.948Z,98289.85
2018-12-21T00:32:50.187Z,98288.02
2018-12-21T00:37:58.362Z,98284.88
2018-12-21T00:43:05.574Z,98284.70
2018-12-21T00:48:08.464Z,98281.04
2018-12-21T00:53:10.954Z,98284.21
2018-12-21T00:58:13.421Z,98275.55
2018-12-21T01:03:15.876Z,98276.83
2018-12-21T01:08:18.273Z,98277.69
2018-12-21T01:13:20.715Z,98279.81
2018-12-21T01:18:25.058Z,98282.78
2018-12-21T01:23:27.433Z,98283.57
2018-12-21T01:28:29.713Z,98287.91
2018-12-21T01:33:32.357Z,98287.38
2018-12-21T01:38:34.777Z,98287.99
2018-12-21T01:43:37.049Z,98280.08
2018-12-21T01:48:39.320Z,98284.74
2018-12-21T01:53:41.753Z,98278.52
2018-12-21T01:58:44.027Z,98279.61
2018-12-21T02:03:46.525Z,98273.68
2018-12-21T02:08:48.842Z,98264.49
2018-12-21T02:13:51.129Z,98259.66
2018-12-21T02:18:53.565Z,98258.34
2018-12-21T02:23:55.842Z,98258.72
2018-12-21T02:28:58.427Z,98256.43
2018-12-21T02:34:00.745Z,98247.24
2018-12-21T02:39:05.590Z,98252.53
2018-12-21T02:44:08.185Z,98252.05
2018-12-21T02:49:10.454Z,98249.52
2018-12-21T02:54:12.906Z,98234.75
2018-12-21T02:59:15.258Z,98226.13
2018-12-21T03:04:17.720Z,98216.78
2018-12-21T03:09:20.786Z,98214.39
2018-12-21T03:14:23.062Z,98204.34
2018-12-21T03:19:26.446Z,98194.70
2018-12-21T03:24:28.768Z,98182.33
2018-12-21T03:29:32.078Z,98179.98
2018-12-21T03:34:34.445Z,98181.98
2018-12-21T03:39:36.838Z,98181.16
2018-12-21T03:44:39.238Z,98175.72
2018-12-21T03:49:41.549Z,98173.96
2018-12-21T03:54:43.849Z,98167.44
2018-12-21T03:59:46.193Z,98162.64
2018-12-21T04:04:48.617Z,98148.87
2018-12-21T04:09:50.933Z,98144.45
2018-12-21T04:14:53.225Z,98146.20
2018-12-21T04:19:55.540Z,98142.31
2018-12-21T04:24:57.812Z,98134.44
2018-12-21T04:30:00.175Z,98138.42
2018-12-21T04:35:02.626Z,98138.12
2018-12-21T04:40:05.970Z,98125.93
2018-12-21T04:45:08.375Z,98132.15
2018-12-21T04:50:10.799Z,98132.10
2018-12-21T04:55:13.180Z,98125.06
2018-12-21T05:00:15.950Z,98124.19
2018-12-21T05:05:18.328Z,98117.28
2018-12-21T05:10:20.649Z,98115.77
2018-12-21T05:15:22.994Z,98108.38
2018-12-21T05:20:25.399Z,98099.51
2018-12-21T05:25:30.586Z,98090.48
2018-12-21T05:30:32.926Z,98094.50
2018-12-21T05:35:35.320Z,98093.19
2018-12-21T05:40:37.622Z,98084.95
2018-12-21T05:45:40.000Z,98074.80
2018-12-21T05:50:42.373Z,98068.62
2018-12-21T05:55:45.855Z,98052.47
2018-12-21T06:00:48.176Z,98032.35
2018-12-21T06:05:50.640Z,98035.35
2018-12-21T06:10:52.975Z,98033.96
2018-12-21T06:15:56.406Z,98024.70
2018-12-21T06:20:58.704Z,98023.20
2018-12-21T06:26:01.083Z,98007.14
2018-12-21T06:31:03.373Z,98007.44
2018-12-21T06:36:05.743Z,98004.61
2018-12-21T06:41:08.209Z,97992.98
2018-12-21T06:46:14.288Z,97976.16
2018-12-21T06:51:14.994Z,97973.70
2018-12-21T06:56:17.303Z,97963.88
2018-12-21T07:01:19.607Z,97949.55
2018-12-21T07:06:22.019Z,97941.05
2018-12-21T07:11:24.380Z,97930.54
2018-12-21T07:16:26.734Z,97923.15
2018-12-21T07:21:29.112Z,97919.11
2018-12-21T07:26:31.704Z,97913.53
2018-12-21T07:31:33.998Z,97900.72
2018-12-21T07:36:36.524Z,97894.08
2018-12-21T07:41:39.269Z,97876.39
2018-12-21T07:46:41.644Z,97868.09
2018-12-21T07:51:44.040Z,97862.48
2018-12-21T07:56:46.325Z,97848.61
2018-12-21T08:01:48.636Z,97859.16
2018-12-21T08:06:51.094Z,97852.88
2018-12-21T08:11:53.731Z,97826.59
2018-12-21T08:16:56.194Z,97814.26
2018-12-21T08:21:58.804Z,97808.30
2018-12-21T08:27:01.137Z,97797.45
2018-12-21T08:32:03.436Z,97798.48
2018-12-21T08:37:05.821Z,97778.84
2018-12-21T08:42:08.119Z,97779.34
2018-12-21T08:47:10.535Z,97766.19
2018-12-21T08:52:12.952Z,97753.86
2018-12-21T08:57:15.773Z,97750.04
2018-12-21T09:02:18.173Z,97743.55
2018-12-21T09:07:20.878Z,97737.00
2018-12-21T09:12:24.164Z,97729.72
2018-12-21T09:17:27.449Z,97724.17
2018-12-21T09:22:30.127Z,97722.87
2018-12-21T09:27:33.227Z,97712.25
2018-12-21T09:32:36.338Z,97716.81
2018-12-21T09:37:38.806Z,97703.72
2018-12-21T09:42:41.746Z,97683.55
2018-12-21T09:47:44.108Z,97668.37
2018-12-21T09:52:46.561Z,97655.90
2018-12-21T09:57:49.891Z,97639.46
2018-12-21T10:02:52.203Z,97621.97
2018-12-21T10:07:54.561Z,97602.03
2018-12-21T10:12:56.935Z,97578.71
2018-12-21T10:17:59.342Z,97552.53
2018-12-21T10:23:01.923Z,97536.56
2018-12-21T10:28:04.609Z,97510.89
2018-12-21T10:33:07.428Z,97498.67
2018-12-21T10:38:09.928Z,97482.09
2018-12-21T10:43:12.207Z,97479.69
2018-12-21T10:48:14.579Z,97464.92
2018-12-21T10:53:17.281Z,97447.53
2018-12-21T10:58:19.586Z,97444.02
2018-12-21T11:03:22.177Z,97423.31
2018-12-21T11:08:25.487Z,97417.73
2018-12-21T11:13:27.776Z,97403.67
2018-12-21T11:18:30.123Z,97381.75
2018-12-21T11:23:32.474Z,97372.13
2018-12-21T11:28:34.760Z,97353.02
2018-12-21T11:33:37.073Z,97331.70
2018-12-21T11:38:39.411Z,97326.23
2018-12-21T11:43:41.799Z,97302.95
2018-12-21T11:48:45.400Z,97293.87
2018-12-21T11:53:47.805Z,97271.24
2018-12-21T11:58:50.148Z,97257.06
2018-12-21T12:03:52.477Z,97244.40
2018-12-21T12:08:54.913Z,97231.52
2018-12-21T12:13:57.367Z,97204.59
2018-12-21T12:18:59.726Z,97195.58
2018-12-21T12:24:02.162Z,97165.99
2018-12-21T12:29:05.543Z,97160.41
2018-12-21T12:34:08.223Z,97141.80
2018-12-21T12:39:10.584Z,97136.45
2018-12-21T12:44:19.448Z,97122.20
2018-12-21T12:49:22.627Z,97087.94
2018-12-21T12:54:25.054Z,97115.52
2018-12-21T12:59:27.452Z,97116.38
2018-12-21T13:04:29.686Z,97085.82
2018-12-21T13:09:32.090Z,97091.92
2018-12-21T13:14:34.310Z,97068.28
2018-12-21T13:19:36.599Z,97061.67
2018-12-21T13:24:38.919Z,97057.37
2018-12-21T13:29:41.226Z,97089.02
2018-12-21T13:34:43.829Z,97038.55
2018-12-21T13:39:46.104Z,97046.72
2018-12-21T13:44:48.585Z,97039.98
2018-12-21T13:49:50.864Z,97043.94
2018-12-21T13:54:53.121Z,97024.59
2018-12-21T13:59:56.460Z,97025.08
2018-12-21T14:04:58.712Z,97021.74
2018-12-21T14:10:01.037Z,97008.56
2018-12-21T14:15:03.537Z,96988.31
2018-12-21T14:20:09.209Z,97020.91
2018-12-21T14:25:11.656Z,97018.95
2018-12-21T14:30:13.977Z,97007.95
2018-12-21T14:35:16.261Z,97022.30
2018-12-21T14:40:18.542Z,97011.52
2018-12-21T14:45:20.808Z,97022.40
2018-12-21T14:50:23.061Z,97029.91
2018-12-21T14:55:25.285Z,97016.64
2018-12-21T15:00:27.620Z,97007.64
2018-12-21T15:05:29.882Z,97033.93
2018-12-21T15:10:32.139Z,97029.23
2018-12-21T15:15:34.711Z,97039.03
2018-12-21T15:20:36.973Z,97032.09
2018-12-21T15:25:46.017Z,97044.78
2018-12-21T15:30:44.264Z,97048.32
2018-12-21T15:35:46.495Z,97038.38
2018-12-21T15:40:48.787Z,97027.84
2018-12-21T15:45:51.273Z,97028.95
2018-12-21T15:50:53.947Z,97030.84
2018-12-21T15:55:56.291Z,97038.92
2018-12-21T16:00:58.583Z,97033.61
2018-12-21T16:06:00.902Z,97027.30
2018-12-21T16:11:03.345Z,97024.80
2018-12-21T16:16:05.937Z,97028.48
2018-12-21T16:21:09.635Z,97030.67
2018-12-21T16:26:13.051Z,97035.96
2018-12-21T16:31:16.076Z,97034.77
2018-12-21T16:36:19.432Z,96995.55
2018-12-21T16:41:21.859Z,97016.70
2018-12-21T16:46:24.083Z,97013.87
2018-12-21T16:51:26.421Z,97013.25
2018-12-21T16:56:28.665Z,97016.70
2018-12-21T17:01:30.965Z,97022.63
2018-12-21T17:06:33.249Z,97027.13
2018-12-21T17:11:35.490Z,97018.07
2018-12-21T17:16:37.731Z,97055.59
2018-12-21T17:21:40.027Z,97025.55
2018-12-21T17:26:44.537Z,97046.58
2018-12-21T17:31:46.802Z,97049.73
2018-12-21T17:36:49.065Z,97053.50
2018-12-21T17:41:51.741Z,97048.11
2018-12-21T17:46:53.984Z,97060.75
2018-12-21T17:52:01.369Z,97062.20
2018-12-21T17:57:00.563Z,97046.38
2018-12-21T18:02:02.825Z,97028.78
2018-12-21T18:07:06.285Z,97034.29
2018-12-21T18:12:08.888Z,97037.84
2018-12-21T18:17:12.917Z,97011.22
2018-12-21T18:22:18.748Z,97005.36
2018-12-21T18:27:21.053Z,97019.73
2018-12-21T18:32:35.190Z,97010.41
2018-12-21T18:37:57.761Z,97046.20
2018-12-21T18:43:00.011Z,97044.25
2018-12-21T18:48:02.373Z,97057.91
2018-12-21T18:53:04.620Z,97057.71
2018-12-21T18:58:07.540Z,97059.28
2018-12-21T19:03:09.782Z,97063.05
2018-12-21T19:08:12.478Z,97043.77
2018-12-21T19:13:14.753Z,97040.82
2018-12-21T19:18:17.056Z,97054.66
2018-12-21T19:23:20.099Z,97050.28
2018-12-21T19:28:22.435Z,97064.95
2018-12-21T19:33:25.801Z,97077.19
2018-12-21T19:38:28.054Z,97057.02
2018-12-21T19:43:30.297Z,97073.64
2018-12-21T19:48:32.556Z,97078.25
2018-12-21T19:53:34.779Z,97089.27
2018-12-21T19:58:37.020Z,97098.33
2018-12-21T20:03:39.246Z,97113.91
2018-12-21T20:08:41.563Z,97122.16
2018-12-21T20:13:43.821Z,97139.51
2018-12-21T20:18:47.706Z,97146.02
2018-12-21T20:23:50.185Z,97144.77
2018-12-21T20:28:52.464Z,97154.45
2018-12-21T20:33:54.803Z,97141.68
2018-12-21T20:38:57.188Z,97130.38
2018-12-21T20:43:59.431Z,97124.88
2018-12-21T20:49:01.789Z,97138.13
2018-12-21T20:54:04.192Z,97130.30
2018-12-21T20:59:09.561Z,97142.50
2018-12-21T21:04:11.937Z,97132.30
2018-12-21T21:09:14.929Z,97134.43
2018-12-21T21:14:18.584Z,97144.66
2018-12-21T21:19:21.195Z,97157.13
2018-12-21T21:24:23.589Z,97178.33
2018-12-21T21:29:25.827Z,97201.50
2018-12-21T21:34:28.076Z,97212.31
2018-12-21T21:39:30.357Z,97205.31
2018-12-21T21:44:32.684Z,97197.11
2018-12-21T21:49:34.912Z,97196.09
2018-12-21T21:54:37.159Z,97198.13
2018-12-21T21:59:39.423Z,97196.98
2018-12-21T22:04:41.833Z,97199.61
2018-12-21T22:09:44.188Z,97238.75
2018-12-21T22:14:46.518Z,97244.99
2018-12-21T22:19:48.781Z,97202.07
2018-12-21T22:24:51.008Z,97209.47
2018-12-21T22:29:53.333Z,97204.33
2018-12-21T22:34:55.569Z,97219.40
2018-12-21T22:39:57.904Z,97216.05
2018-12-21T22:45:00.164Z,97232.51
2018-12-21T22:50:02.681Z,97211.65
2018-12-21T22:55:06.465Z,97209.65
2018-12-21T23:00:16.311Z,97216.70
2018-12-21T23:05:18.568Z,97226.33
2018-12-21T23:10:20.821Z,97213.45
2018-12-21T23:15:23.185Z,97221.36
2018-12-21T23:20:25.463Z,97215.76
2018-12-21T23:25:27.836Z,97229.13
2018-12-21T23:30:30.128Z,97237.48
2018-12-21T23:35:32.388Z,97232.45
2018-12-21T23:40:34.665Z,97240.97
2018-12-21T23:45:36.960Z,97231.38
2018-12-21T23:50:39.492Z,97242.72
2018-12-21T23:55:41.884Z,97244.99
